Ana Sayfa
METAR-TAF:

METAR-TAF

Havaalanları :

Le Mars Municipal Airport

Le Mars, Iowa, Amerika Birleşik Devletleri

Enlem: 42-46-41N, Boylam: 096-11-37W, yükseklik: 365 m

Güncel hava durumu gözlemi

Rapor saat 16:15 UTC de 33 dakika önce yapıldı.
Rüzgar kuzeydan 7 kt ve 12 kt'a kadar ani rüzgarlar, kuzey/kuzeybatı ve kuzey/kuzeydoğu arasında değişken
Sıcaklık 20°C
Nem 64%
Basınç 1025 hPa
Görüş mesafesi: 16.1 km
3000 ft yükseklikte az bulutlu
11000 ft yükseklikte parçalı çok bulutlu

METAR: KLRJ 191615Z AUTO 36007G12KT 330V030 10SM FEW030 BKN110 20/13 A3027 RMK AO2

Saat: 11:48 (16:48 UTC)


TAF: eksik

4.000'den fazla havaalanı için hava durumu gözlemleri ve tahminleri (METAR ve TAF raporları).

Kullanılabilir istasyonlar harita üzerinde sarı ve kırmızı noktalarla gösterilir.

İstasyonun adını görmek için fareyi noktanın üzerinde gezdirin.

Sonrasında hava gözlem ve tahminlerini görmek için tıklayın.

Haritayı değiştirmek için: yaklaştırmak için siyah artı işaretli yeşil düğmeye ve uzaklaştırmak için de eksi işaretli düğmeye hızla tıklayın; bitişik haritalar için yeşil okları kullanın.


METAR-TAF: